Yeager Airport
KCRW : rendu visible

Aérodrome :











RETROUVEZ-NOUS SUR...

 
LOGIN :

S'inscrire | Disclaimer

   EN    FR    IT 

 









Légende :    VFR   VFR Marginal   IFR   IFR Intensif   IFR Très Intensif
Visi : 
Plafond : 
>= 8 km
>= 3000ft
5 à 8 km
1000 à 3000 ft
1500m à 5 km
500 à 1000 ft
800 à 1500m
200 à 500 ft
< 800m
< 200 ft
Symboles :   Orages  Brouillard  Fortes neiges  Fortes précipitations  Vent > 20 kt






- Altitude de l'aérodrome : 981 ft
- Code IATA : CRW


KCRW - Yeager

DERNIER METAR :
  • 181554Z 17007KT 10SM OVC100 11/M03 A3002 RMK AO2 SLP168 T01061033

METARs EXPIRÉS :
  • 181454Z 16006KT 10SM BKN040 BKN050 OVC100 07/M03 A3005 RMK AO2 SLP182 60000 T00721028 58041
  • 181354Z 00000KT 10SM OVC040 05/M03 A3010 RMK AO2 RAE11 SLP198 P0000 T00501028 $

TAF KCRW
Valide du 18 à 15h jusqu'au 19 à 12h UTC


181437Z 1815/1912 12004KT P6SM VCSH OVC045 WS020/19040KT
FM181700 17009G16KT P6SM -RA OVC040
FM181900 21012G20KT 3SM RA SCT009 OVC015
FM182200 23012G22KT P6SM -SHRA OVC014
FM190500 26014G25KT P6SM BKN020



MET'MAP, la Météo Aéronautique d'un coup d'oeil ! - Copyright ORBIFLY Décembre 2007 - Disclaimer

ORBIFLY MET'MAP TEAM :

Programmation & Développement : Alexandra Zaïnal
Sur une idée originale de : Baudouin d'Aumeries
Assistance à la programmation : Marc-Olivier Méhu
Soutien technique & logistique : Manuel Goepfert

Contact : metmap@orbifly.com




SOURCES & CREDITS :

   NOAA       Earth
Advisory